createdAt,value
2018-06-02T00:04:39.231Z,37.33
2018-06-02T00:09:30.886Z,37.60
2018-06-02T00:14:21.816Z,41.00
2018-06-02T00:19:12.700Z,41.33
2018-06-02T00:24:04.321Z,39.63
2018-06-02T00:28:56.773Z,38.97
2018-06-02T00:33:49.170Z,41.72
2018-06-02T00:38:40.074Z,38.93
2018-06-02T00:43:31.744Z,39.53
2018-06-02T00:48:23.383Z,39.73
2018-06-02T00:53:14.399Z,39.40
2018-06-02T00:58:05.296Z,39.33
2018-06-02T01:02:56.929Z,41.80
2018-06-02T01:07:49.334Z,42.43
2018-06-02T01:12:40.962Z,42.23
2018-06-02T01:17:31.907Z,42.00
2018-06-02T01:22:24.283Z,40.33
2018-06-02T01:27:15.912Z,39.47
2018-06-02T01:32:08.302Z,39.87
2018-06-02T01:36:59.210Z,40.23
2018-06-02T01:41:50.859Z,41.10
2018-06-02T01:46:41.747Z,41.23
2018-06-02T01:51:34.142Z,42.13
2018-06-02T01:56:25.921Z,41.30
2018-06-02T02:01:18.272Z,39.13
2018-06-02T02:06:09.887Z,40.90
2018-06-02T02:11:00.851Z,41.17
2018-06-02T02:15:51.767Z,39.60
2018-06-02T02:20:42.670Z,42.10
2018-06-02T02:25:33.590Z,39.60
2018-06-02T02:30:24.505Z,37.93
2018-06-02T02:35:15.416Z,40.00
2018-06-02T02:40:06.317Z,37.97
2018-06-02T02:44:57.214Z,37.23
2018-06-02T02:49:49.581Z,35.97
2018-06-02T02:54:40.444Z,35.03
2018-06-02T02:59:33.144Z,36.77
2018-06-02T03:04:24.835Z,37.17
2018-06-02T03:09:16.547Z,33.33
2018-06-02T03:14:07.448Z,34.17
2018-06-02T03:18:59.112Z,32.57
2018-06-02T03:23:50.747Z,33.67
2018-06-02T03:28:42.410Z,32.60
2018-06-02T03:33:35.132Z,34.30
2018-06-02T03:38:26.076Z,33.67
2018-06-02T03:43:17.722Z,34.57
2018-06-02T03:48:08.640Z,35.87
2018-06-02T03:52:59.506Z,36.43
2018-06-02T03:57:51.892Z,35.80
2018-06-02T04:02:42.815Z,40.80
2018-06-02T04:07:34.467Z,38.93
2018-06-02T04:12:26.116Z,43.87
2018-06-02T04:17:17.040Z,39.03
2018-06-02T04:22:08.689Z,39.23
2018-06-02T04:27:00.309Z,39.83
2018-06-02T04:31:51.316Z,39.87
2018-06-02T04:36:42.961Z,39.63
2018-06-02T04:41:33.919Z,40.13
2018-06-02T04:46:25.470Z,37.90
2018-06-02T04:51:17.131Z,41.88
2018-06-02T04:56:08.793Z,38.30
2018-06-02T05:00:59.704Z,39.17
2018-06-02T05:05:50.639Z,40.83
2018-06-02T05:10:41.545Z,39.60
2018-06-02T05:15:32.435Z,42.50
2018-06-02T05:20:24.329Z,40.83
2018-06-02T05:25:16.066Z,41.70
2018-06-02T05:30:06.965Z,44.07
2018-06-02T05:34:57.854Z,41.03
2018-06-02T05:39:49.492Z,41.07
2018-06-02T05:44:41.197Z,42.30
2018-06-02T05:49:32.084Z,43.07
2018-06-02T05:54:22.987Z,40.70
2018-06-02T05:59:14.606Z,44.73
2018-06-02T06:04:06.321Z,45.57
2018-06-02T06:08:58.695Z,44.83
2018-06-02T06:13:50.324Z,40.33
2018-06-02T06:18:41.208Z,43.93
2018-06-02T06:23:32.137Z,46.00
2018-06-02T06:28:23.035Z,42.10
2018-06-02T06:33:14.022Z,45.33
2018-06-02T06:38:04.846Z,47.97
2018-06-02T06:42:56.539Z,43.97
2018-06-02T06:47:47.458Z,43.00
2018-06-02T06:52:38.358Z,48.77
2018-06-02T06:57:30.007Z,41.87
2018-06-02T07:02:21.654Z,41.73
2018-06-02T07:07:13.296Z,46.47
2018-06-02T07:12:05.035Z,46.30
2018-06-02T07:16:56.735Z,43.30
2018-06-02T07:21:47.672Z,47.90
2018-06-02T07:26:38.598Z,44.23
2018-06-02T07:31:30.208Z,45.87
2018-06-02T07:36:21.108Z,47.07
2018-06-02T07:41:12.760Z,42.93
2018-06-02T07:46:04.411Z,45.77
2018-06-02T07:50:55.354Z,44.23
2018-06-02T07:55:46.225Z,45.87
2018-06-02T08:00:37.148Z,38.30
2018-06-02T08:05:29.573Z,45.97
2018-06-02T08:10:21.236Z,32.83
2018-06-02T08:15:12.115Z,33.17
2018-06-02T08:20:03.767Z,36.00
2018-06-02T08:24:54.819Z,31.70
2018-06-02T08:29:47.185Z,27.10
2018-06-02T08:34:39.558Z,27.43
2018-06-02T08:39:31.195Z,29.43
2018-06-02T08:44:22.882Z,27.60
2018-06-02T08:49:13.773Z,26.67
2018-06-02T08:54:05.414Z,27.07
2018-06-02T08:58:57.075Z,31.43
2018-06-02T09:03:48.703Z,25.87
2018-06-02T09:08:39.618Z,31.47
2018-06-02T09:13:30.531Z,29.00
2018-06-02T09:18:22.176Z,27.13
2018-06-02T09:23:13.816Z,27.30
2018-06-02T09:28:05.475Z,32.07
2018-06-02T09:32:56.356Z,31.60
2018-06-02T09:37:47.993Z,33.37
2018-06-02T09:42:39.677Z,29.53
2018-06-02T09:47:30.612Z,35.10
2018-06-02T09:52:21.529Z,29.33
2018-06-02T09:57:12.449Z,29.37
2018-06-02T10:02:03.399Z,36.53
2018-06-02T10:06:55.784Z,36.57
2018-06-02T10:11:47.493Z,41.60
2018-06-02T10:16:39.878Z,35.27
2018-06-02T10:21:31.541Z,35.73
2018-06-02T10:26:22.452Z,34.37
2018-06-02T10:31:13.398Z,43.23
2018-06-02T10:36:04.299Z,36.73
2018-06-02T10:40:55.232Z,38.33
2018-06-02T10:45:46.150Z,38.40
2018-06-02T10:50:37.052Z,34.23
2018-06-02T10:55:27.964Z,35.43
2018-06-02T11:00:18.854Z,31.13
2018-06-02T11:05:11.242Z,33.07
2018-06-02T11:10:02.203Z,31.13
2018-06-02T11:14:53.854Z,36.17
2018-06-02T11:19:44.809Z,34.23
2018-06-02T11:24:36.458Z,35.07
2018-06-02T11:29:28.119Z,34.07
2018-06-02T11:34:19.746Z,37.43
2018-06-02T11:39:11.406Z,37.77
2018-06-02T11:44:02.287Z,32.63
2018-06-02T11:48:53.957Z,34.53
2018-06-02T11:53:44.896Z,32.93
2018-06-02T11:58:36.553Z,35.20
2018-06-02T12:03:27.521Z,28.90
2018-06-02T12:08:18.469Z,27.33
2018-06-02T12:13:11.212Z,32.53
2018-06-02T12:18:03.127Z,30.00
2018-06-02T12:22:54.051Z,30.23
2018-06-02T12:27:45.745Z,29.77
2018-06-02T12:32:36.652Z,29.50
2018-06-02T12:37:27.522Z,30.37
2018-06-02T12:42:19.136Z,29.07
2018-06-02T12:47:10.791Z,36.57
2018-06-02T12:52:01.699Z,39.10
2018-06-02T12:56:53.358Z,35.10
2018-06-02T13:01:45.101Z,37.63
2018-06-02T13:06:36.859Z,36.77
2018-06-02T13:11:27.787Z,36.03
2018-06-02T13:16:19.407Z,40.60
2018-06-02T13:21:11.108Z,37.57
2018-06-02T13:26:02.712Z,37.23
2018-06-02T13:30:54.361Z,35.27
2018-06-02T13:35:45.236Z,31.77
2018-06-02T13:40:37.622Z,36.40
2018-06-02T13:45:29.333Z,32.88
2018-06-02T13:50:21.731Z,32.43
2018-06-02T13:55:13.380Z,34.00
2018-06-02T14:00:05.041Z,33.20
2018-06-02T14:04:55.919Z,34.47
2018-06-02T14:09:47.591Z,33.57
2018-06-02T14:14:39.229Z,32.80
2018-06-02T14:19:30.848Z,31.23
2018-06-02T14:24:22.513Z,28.80
2018-06-02T14:29:13.410Z,26.90
2018-06-02T14:34:04.309Z,25.97
2018-06-02T14:38:55.955Z,31.73
2018-06-02T14:43:47.717Z,32.80
2018-06-02T14:48:39.355Z,31.23
2018-06-02T14:53:30.260Z,32.23
2018-06-02T14:58:21.881Z,37.57
2018-06-02T15:03:12.878Z,34.73
2018-06-02T15:08:03.754Z,33.07
2018-06-02T15:12:54.705Z,30.47
2018-06-02T15:17:45.640Z,38.47
2018-06-02T15:22:36.485Z,33.13
2018-06-02T15:27:28.146Z,33.87
2018-06-02T15:32:19.043Z,26.67
2018-06-02T15:37:10.681Z,25.93
2018-06-02T15:42:02.346Z,28.67
2018-06-02T15:46:53.262Z,30.37
2018-06-02T15:51:44.163Z,34.43
2018-06-02T15:56:35.826Z,28.07
2018-06-02T16:01:27.472Z,28.07
2018-06-02T16:06:19.120Z,23.20
2018-06-02T16:11:10.042Z,26.50
2018-06-02T16:16:01.048Z,29.50
2018-06-02T16:20:52.038Z,23.13
2018-06-02T16:25:43.687Z,25.77
2018-06-02T16:30:34.600Z,22.63
2018-06-02T16:35:26.969Z,22.63
2018-06-02T16:40:17.965Z,23.60
2018-06-02T16:45:10.373Z,24.50
2018-06-02T16:50:01.311Z,26.03
2018-06-02T16:54:53.774Z,23.00
2018-06-02T16:59:46.199Z,23.83
2018-06-02T17:04:37.197Z,23.70
2018-06-02T17:09:28.821Z,23.33
2018-06-02T17:14:20.493Z,23.37
2018-06-02T17:19:11.421Z,25.83
2018-06-02T17:24:02.328Z,29.50
2018-06-02T17:28:53.224Z,28.87
2018-06-02T17:33:44.137Z,24.97
2018-06-02T17:38:35.786Z,23.37
2018-06-02T17:43:26.636Z,24.27
2018-06-02T17:48:17.541Z,27.00
2018-06-02T17:53:08.464Z,27.33
2018-06-02T17:57:59.351Z,26.47
2018-06-02T18:02:50.988Z,21.57
2018-06-02T18:07:42.661Z,25.60
2018-06-02T18:12:33.588Z,23.20
2018-06-02T18:17:24.466Z,22.70
2018-06-02T18:22:16.114Z,22.23
2018-06-02T18:27:07.021Z,24.97
2018-06-02T18:31:59.837Z,20.87
2018-06-02T18:36:50.772Z,23.80
2018-06-02T18:41:41.648Z,20.57
2018-06-02T18:46:32.552Z,26.67
2018-06-02T18:51:24.245Z,25.53
2018-06-02T18:56:15.166Z,21.53
2018-06-02T19:01:06.066Z,39.43
2018-06-02T19:05:57.729Z,26.57
2018-06-02T19:10:48.612Z,22.67
2018-06-02T19:15:39.546Z,27.23
2018-06-02T19:20:30.451Z,20.40
2018-06-02T19:25:22.867Z,24.23
2018-06-02T19:30:13.737Z,27.53
2018-06-02T19:35:04.601Z,26.40
2018-06-02T19:39:55.509Z,28.77
2018-06-02T19:44:47.498Z,26.87
2018-06-02T19:49:39.172Z,26.50
2018-06-02T19:54:30.171Z,25.67
2018-06-02T19:59:21.092Z,26.23
2018-06-02T20:04:11.992Z,30.93
2018-06-02T20:09:02.968Z,22.20
2018-06-02T20:13:54.592Z,25.90
2018-06-02T20:18:45.472Z,26.40
2018-06-02T20:23:37.103Z,25.50
2018-06-02T20:28:28.000Z,28.03
2018-06-02T20:33:19.644Z,23.97
2018-06-02T20:38:10.549Z,22.83
2018-06-02T20:43:02.951Z,27.33
2018-06-02T20:47:54.571Z,23.60
2018-06-02T20:52:45.460Z,22.57
2018-06-02T20:57:37.075Z,22.40
2018-06-02T21:02:29.492Z,24.23
2018-06-02T21:07:21.119Z,22.97
2018-06-02T21:12:13.554Z,25.87
2018-06-02T21:17:04.459Z,26.77
2018-06-02T21:21:55.360Z,26.33
2018-06-02T21:26:46.247Z,25.73
2018-06-02T21:31:37.137Z,24.30
2018-06-02T21:36:28.798Z,26.47
2018-06-02T21:41:19.743Z,26.60
2018-06-02T21:46:10.705Z,32.40
2018-06-02T21:51:02.337Z,28.30
2018-06-02T21:55:53.972Z,29.00
2018-06-02T22:00:45.610Z,25.53
2018-06-02T22:05:37.223Z,30.23
2018-06-02T22:10:28.127Z,32.20
2018-06-02T22:15:20.532Z,29.87
2018-06-02T22:20:12.178Z,32.37
2018-06-02T22:25:04.577Z,32.40
2018-06-02T22:29:55.473Z,33.73
2018-06-02T22:34:47.136Z,37.57
2018-06-02T22:39:38.046Z,37.53
2018-06-02T22:44:29.749Z,33.97
2018-06-02T22:49:22.478Z,33.37
2018-06-02T22:54:14.145Z,40.43
2018-06-02T22:59:05.829Z,34.93
2018-06-02T23:03:58.624Z,39.30
2018-06-02T23:08:49.523Z,37.87
2018-06-02T23:13:40.438Z,38.50
2018-06-02T23:18:32.105Z,38.33
2018-06-02T23:23:23.775Z,42.40
2018-06-02T23:28:15.428Z,43.17
2018-06-02T23:33:07.096Z,45.37
2018-06-02T23:37:58.753Z,43.53
2018-06-02T23:42:51.448Z,42.30
2018-06-02T23:47:42.348Z,45.33
2018-06-02T23:52:34.766Z,45.83
2018-06-02T23:57:27.163Z,48.87
